Time;durP1;ratioP1;P1;durP2;ratioP2;P2;SDS_P1;SDS_P2;PMS_P1;PMS_P2;Temp;Humidity;BMP_temperature;BMP_pressure;BME280_temperature;BME280_humidity;BME280_pressure;Samples;Min_cycle;Max_cycle;Signal;HPM_P1;HPM_P2
2022/06/14 00:00:58;;;;;;;13.33;6.30;;;18.40;40.20;;;;;;5030986;28;20427;-68
2022/06/14 00:03:39;;;;;;;13.03;5.80;;;18.30;38.90;;;;;;5033072;28;20667;-68
2022/06/14 00:06:28;;;;;;;11.97;6.17;;;18.20;39.00;;;;;;5031785;28;20187;-68
2022/06/14 00:08:54;;;;;;;9.60;5.87;;;18.10;39.90;;;;;;5032167;28;20556;-68
2022/06/14 00:11:21;;;;;;;10.03;6.00;;;18.00;39.80;;;;;;5026699;28;20519;-68
2022/06/14 00:13:49;;;;;;;14.50;6.30;;;18.00;39.80;;;;;;5037591;28;20743;-68
2022/06/14 00:16:16;;;;;;;11.73;6.17;;;17.90;39.70;;;;;;5040397;28;20418;-68
2022/06/14 00:18:42;;;;;;;9.30;5.83;;;17.80;42.00;;;;;;5032004;28;20438;-68
2022/06/14 00:21:08;;;;;;;13.70;6.60;;;17.80;40.40;;;;;;5041839;28;20944;-69
2022/06/14 00:23:35;;;;;;;15.30;6.20;;;17.70;41.10;;;;;;5019543;28;20210;-68
2022/06/14 00:26:02;;;;;;;11.87;6.00;;;17.80;40.80;;;;;;5038348;28;20438;-68
2022/06/14 00:28:30;;;;;;;19.63;6.50;;;17.80;40.60;;;;;;5033578;28;20460;-69
2022/06/14 00:31:06;;;;;;;10.60;5.90;;;17.80;40.60;;;;;;5027703;28;20431;-69
2022/06/14 00:33:31;;;;;;;11.10;5.50;;;18.00;40.40;;;;;;5020214;28;20449;-68
2022/06/14 00:36:04;;;;;;;11.00;6.80;;;18.00;40.90;;;;;;5038673;28;21255;-68
2022/06/14 00:38:30;;;;;;;10.67;6.37;;;18.00;40.60;;;;;;5023798;28;20415;-68
2022/06/14 00:40:58;;;;;;;12.47;5.80;;;18.20;38.80;;;;;;5031682;28;20443;-68
2022/06/14 00:43:25;;;;;;;12.23;6.63;;;18.30;38.50;;;;;;5029077;28;20463;-68
2022/06/14 00:45:52;;;;;;;17.53;5.60;;;18.20;39.00;;;;;;5029696;28;20443;-68
2022/06/14 00:48:22;;;;;;;11.83;6.33;;;18.10;39.70;;;;;;5031512;28;20449;-68
2022/06/14 00:51:29;;;;;;;13.20;6.10;;;17.80;40.60;;;;;;5031968;28;20534;-69
2022/06/14 00:54:12;;;;;;;12.00;6.47;;;17.70;39.50;;;;;;5023324;28;20814;-70
2022/06/14 00:56:38;;;;;;;14.30;6.50;;;17.80;39.70;;;;;;5019445;28;20434;-69
2022/06/14 00:59:30;;;;;;;17.20;7.00;;;17.80;39.60;;;;;;5034898;28;20799;-69
2022/06/14 01:02:11;;;;;;;13.93;6.40;;;19.90;41.50;;;;;;5025531;28;20181;-70
2022/06/14 01:04:37;;;;;;;15.30;6.20;;;18.10;38.20;;;;;;5020219;28;20803;-70
2022/06/14 01:07:17;;;;;;;10.00;6.40;;;18.20;38.80;;;;;;5032909;28;20805;-69
2022/06/14 01:09:54;;;;;;;16.33;6.13;;;17.90;40.80;;;;;;5026414;28;20449;-70
2022/06/14 01:12:29;;;;;;;17.47;6.53;;;17.70;40.30;;;;;;5031749;28;20787;-69
2022/06/14 01:15:19;;;;;;;10.80;6.20;;;17.90;39.70;;;;;;5031227;28;20473;-69
2022/06/14 01:17:58;;;;;;;9.80;6.77;;;17.80;39.60;;;;;;5028732;28;20442;-70
2022/06/14 01:20:25;;;;;;;12.73;6.80;;;17.70;40.90;;;;;;5030781;28;20796;-69
2022/06/14 01:22:52;;;;;;;14.60;6.30;;;17.70;41.90;;;;;;5026937;28;20493;-69
2022/06/14 01:25:18;;;;;;;15.37;5.93;;;17.70;41.30;;;;;;5042142;28;20525;-69
2022/06/14 01:27:45;;;;;;;15.63;6.67;;;17.60;41.00;;;;;;5023897;28;20961;-69
2022/06/14 01:30:16;;;;;;;11.00;6.10;;;17.60;40.50;;;;;;5031525;28;20497;-69
2022/06/14 01:32:48;;;;;;;11.73;6.50;;;17.60;40.00;;;;;;5016988;28;20776;-69
2022/06/14 01:35:21;;;;;;;11.50;6.30;;;17.60;40.20;;;;;;5029895;28;20834;-69
2022/06/14 01:37:51;;;;;;;9.23;6.53;;;17.50;39.70;;;;;;5027411;28;20472;-69
2022/06/14 01:40:17;;;;;;;9.83;6.00;;;17.50;41.40;;;;;;5031183;28;20435;-69
2022/06/14 01:42:59;;;;;;;15.43;6.63;;;17.50;41.40;;;;;;5026282;28;20444;-69
2022/06/14 01:45:48;;;;;;;9.03;6.17;;;17.30;40.90;;;;;;5037692;28;20427;-70
2022/06/14 01:48:31;;;;;;;9.60;6.10;;;17.20;40.10;;;;;;5031302;28;20534;-70
2022/06/14 01:54:39;;;;;;;10.30;6.40;;;17.20;41.10;;;;;;5023375;28;20523;-69
2022/06/14 01:57:10;;;;;;;18.00;7.80;;;17.10;40.90;;;;;;5039853;28;20439;-69
2022/06/14 02:00:03;;;;;;;16.13;7.60;;;17.10;40.90;;;;;;5035919;28;20442;-69
2022/06/14 02:04:36;;;;;;;20.70;7.90;;;17.10;40.40;;;;;;5005153;28;20899;-69
2022/06/14 02:05:50;;;;;;;14.43;8.00;;;16.90;40.90;;;;;;5011364;28;20453;-69
2022/06/14 02:08:21;;;;;;;16.87;7.87;;;16.90;42.70;;;;;;5027260;28;20489;-69
2022/06/14 02:10:53;;;;;;;13.73;8.00;;;17.00;42.10;;;;;;5031337;28;20483;-69
2022/06/14 02:13:38;;;;;;;11.90;8.03;;;17.00;41.60;;;;;;5031115;28;21001;-70
2022/06/14 02:16:19;;;;;;;18.03;9.20;;;17.00;42.10;;;;;;5028785;28;20418;-71
2022/06/14 02:19:12;;;;;;;17.03;8.23;;;17.30;42.20;;;;;;5031199;28;20826;-69
2022/06/14 02:21:43;;;;;;;12.60;8.03;;;17.10;42.60;;;;;;5011292;28;20404;-69
2022/06/14 02:24:33;;;;;;;14.93;8.00;;;17.10;42.70;;;;;;5037127;28;20493;-70
2022/06/14 02:27:06;;;;;;;11.13;7.50;;;16.90;42.80;;;;;;5022698;28;20465;-69
2022/06/14 02:29:39;;;;;;;12.60;7.50;;;16.90;42.30;;;;;;5030806;28;20948;-69
2022/06/14 02:32:15;;;;;;;12.63;7.50;;;16.80;43.40;;;;;;5031252;28;20846;-69
2022/06/14 02:34:47;;;;;;;16.43;7.70;;;16.80;43.20;;;;;;5037236;28;20504;-70
2022/06/14 02:37:30;;;;;;;12.80;7.20;;;16.70;43.00;;;;;;5031373;28;20435;-69
2022/06/14 02:40:14;;;;;;;10.30;7.87;;;16.70;44.00;;;;;;5027859;28;20427;-69
2022/06/14 02:42:51;;;;;;;14.00;7.77;;;16.70;43.90;;;;;;5034475;28;20398;-69
2022/06/14 02:45:42;;;;;;;15.60;7.37;;;16.60;43.20;;;;;;5035526;28;20458;-69
2022/06/14 02:48:16;;;;;;;13.20;7.87;;;16.60;43.20;;;;;;5032524;28;20438;-69
2022/06/14 02:50:59;;;;;;;22.53;7.90;;;16.50;43.20;;;;;;5034174;28;20480;-69
2022/06/14 02:53:39;;;;;;;16.17;8.20;;;16.50;43.60;;;;;;5034070;28;20960;-69
2022/06/14 02:56:17;;;;;;;22.37;7.97;;;16.50;45.00;;;;;;5027490;28;20923;-70
2022/06/14 02:59:06;;;;;;;9.00;6.40;;;16.50;45.20;;;;;;5039230;28;20842;-69
2022/06/14 03:01:42;;;;;;;11.77;6.87;;;16.70;44.30;;;;;;5028871;28;20439;-69
2022/06/14 03:04:19;;;;;;;18.30;7.70;;;16.40;45.90;;;;;;5035234;28;20545;-69
2022/06/14 03:06:48;;;;;;;14.70;7.30;;;16.50;45.90;;;;;;5032026;28;20525;-69
2022/06/14 03:09:18;;;;;;;14.77;7.67;;;16.50;45.20;;;;;;5037558;28;20577;-69
2022/06/14 03:12:19;;;;;;;10.50;7.80;;;16.40;45.30;;;;;;5029990;28;20995;-69
2022/06/14 03:15:11;;;;;;;15.13;7.73;;;16.30;44.50;;;;;;5010927;28;20550;-69
2022/06/14 03:18:09;;;;;;;16.57;8.17;;;16.40;45.00;;;;;;5036204;28;20843;-69
2022/06/14 03:20:35;;;;;;;16.13;7.97;;;16.50;45.50;;;;;;5026533;28;20930;-69
2022/06/14 03:23:38;;;;;;;19.43;8.27;;;16.60;45.60;;;;;;5032430;28;20465;-70
2022/06/14 03:26:18;;;;;;;12.53;7.60;;;16.40;44.70;;;;;;5032923;28;20183;-69
2022/06/14 03:28:50;;;;;;;13.83;7.93;;;16.30;45.10;;;;;;5033516;28;20978;-69
2022/06/14 03:31:34;;;;;;;12.33;8.10;;;16.30;45.60;;;;;;5037948;28;20446;-69
2022/06/14 03:34:28;;;;;;;13.33;7.80;;;16.30;46.20;;;;;;5007333;28;20843;-70
2022/06/14 03:36:55;;;;;;;13.40;7.93;;;16.20;47.00;;;;;;5005074;28;20447;-69
2022/06/14 03:39:24;;;;;;;19.93;8.43;;;16.20;46.60;;;;;;5039911;28;20442;-70
2022/06/14 03:41:52;;;;;;;14.63;7.70;;;16.50;46.30;;;;;;5019808;28;20954;-69
2022/06/14 03:44:20;;;;;;;15.00;8.60;;;16.50;46.50;;;;;;5025302;28;20441;-69
2022/06/14 03:47:19;;;;;;;16.37;7.33;;;16.40;45.00;;;;;;5035989;28;20999;-69
2022/06/14 03:49:59;;;;;;;20.23;9.30;;;16.30;46.10;;;;;;5024740;28;20619;-69
2022/06/14 03:52:43;;;;;;;15.60;8.37;;;16.30;45.20;;;;;;5022333;28;20466;-71
2022/06/14 03:55:11;;;;;;;14.00;8.97;;;16.20;44.60;;;;;;5032893;28;20485;-70
2022/06/14 03:58:04;;;;;;;11.53;7.90;;;16.30;45.70;;;;;;5030551;28;20418;-69
2022/06/14 04:00:45;;;;;;;18.40;9.30;;;16.30;45.40;;;;;;5021492;28;20435;-71
2022/06/14 04:03:49;;;;;;;16.83;8.33;;;16.30;47.40;;;;;;5021632;28;20554;-69
2022/06/14 04:06:29;;;;;;;11.60;8.03;;;16.20;46.90;;;;;;5019320;28;20435;-69
2022/06/14 04:09:29;;;;;;;13.70;8.33;;;16.30;46.20;;;;;;5032919;28;20455;-70
2022/06/14 04:12:28;;;;;;;14.23;8.30;;;16.30;46.60;;;;;;5038682;28;20465;-69
2022/06/14 04:15:11;;;;;;;12.43;8.10;;;16.40;47.20;;;;;;5026875;28;20528;-69
2022/06/14 04:17:50;;;;;;;12.53;7.57;;;16.50;46.30;;;;;;5029744;28;20422;-69
2022/06/14 04:20:25;;;;;;;12.90;8.63;;;16.50;46.20;;;;;;5029955;28;20433;-69
2022/06/14 04:23:12;;;;;;;14.90;7.80;;;16.40;44.80;;;;;;4999243;28;20925;-69
2022/06/14 04:26:00;;;;;;;12.57;8.50;;;16.40;45.10;;;;;;5032715;28;20461;-69
2022/06/14 04:28:45;;;;;;;15.40;9.30;;;16.50;44.40;;;;;;5035603;28;20953;-69
2022/06/14 04:31:19;;;;;;;14.40;8.40;;;16.40;43.80;;;;;;5033671;28;20775;-70
2022/06/14 04:33:54;;;;;;;15.63;8.90;;;16.50;45.10;;;;;;5024859;28;20457;-70
2022/06/14 04:36:31;;;;;;;19.33;9.43;;;16.60;43.50;;;;;;5021153;28;20927;-71
2022/06/14 04:39:04;;;;;;;16.60;10.17;;;16.70;43.40;;;;;;5014231;28;20402;-69
2022/06/14 04:42:04;;;;;;;20.50;9.70;;;16.90;43.30;;;;;;5034319;28;20804;-70
2022/06/14 04:44:30;;;;;;;22.33;9.70;;;16.90;44.30;;;;;;4998879;28;20462;-71
2022/06/14 04:47:25;;;;;;;28.50;11.00;;;16.90;43.90;;;;;;5038594;28;20930;-69
2022/06/14 04:50:00;;;;;;;17.10;11.10;;;17.10;43.10;;;;;;4989685;28;20234;-69
2022/06/14 04:52:37;;;;;;;19.30;11.07;;;16.90;43.00;;;;;;5013731;28;20414;-70
2022/06/14 04:55:09;;;;;;;28.03;11.50;;;16.70;43.60;;;;;;5030428;28;20443;-69
2022/06/14 04:57:43;;;;;;;22.73;11.50;;;16.80;44.60;;;;;;5034630;28;20435;-69
2022/06/14 05:00:18;;;;;;;20.33;10.70;;;17.00;44.80;;;;;;5037741;28;20979;-69
2022/06/14 05:03:10;;;;;;;16.73;10.40;;;17.00;43.40;;;;;;5022938;28;20411;-69
2022/06/14 05:05:41;;;;;;;22.57;10.73;;;17.10;42.50;;;;;;5027725;28;20443;-69
2022/06/14 05:08:24;;;;;;;17.10;10.17;;;16.80;41.60;;;;;;5032334;28;20814;-71
2022/06/14 05:11:04;;;;;;;21.83;11.17;;;16.70;43.60;;;;;;5020154;28;20475;-69
2022/06/14 05:13:37;;;;;;;18.97;11.40;;;16.70;44.30;;;;;;5018469;28;20548;-70
2022/06/14 05:16:10;;;;;;;18.70;10.50;;;16.70;44.30;;;;;;5032430;28;20430;-69
2022/06/14 05:18:58;;;;;;;19.23;10.87;;;16.30;44.70;;;;;;5028153;28;20437;-69
2022/06/14 05:21:39;;;;;;;22.53;10.20;;;16.60;43.60;;;;;;5030131;28;20409;-69
2022/06/14 05:24:05;;;;;;;26.30;11.83;;;16.50;45.10;;;;;;5031461;28;20938;-69
2022/06/14 05:27:06;;;;;;;15.23;10.53;;;16.90;44.80;;;;;;5044393;28;20440;-69
2022/06/14 05:29:47;;;;;;;20.83;10.63;;;17.10;41.50;;;;;;4941158;29;20482;-69
2022/06/14 05:32:32;;;;;;;14.63;10.73;;;17.00;42.10;;;;;;4936102;29;20439;-69
2022/06/14 05:35:26;;;;;;;20.00;10.90;;;16.70;44.10;;;;;;4937153;29;20461;-70
2022/06/14 05:38:01;;;;;;;17.30;9.33;;;17.20;44.90;;;;;;4941796;29;20445;-69
2022/06/14 05:40:51;;;;;;;23.37;9.47;;;17.10;42.50;;;;;;4933692;29;20952;-69
2022/06/14 05:43:31;;;;;;;14.80;9.70;;;16.50;44.20;;;;;;4950472;29;20449;-69
2022/06/14 05:46:10;;;;;;;15.80;9.97;;;16.70;44.10;;;;;;4950349;29;20954;-69
2022/06/14 05:49:03;;;;;;;22.10;10.53;;;17.00;42.00;;;;;;4941763;29;21254;-69
2022/06/14 05:51:42;;;;;;;24.63;9.67;;;17.50;41.10;;;;;;4939282;29;20425;-69
2022/06/14 05:54:27;;;;;;;18.87;9.83;;;17.20;42.10;;;;;;4934427;29;20448;-69
2022/06/14 05:57:00;;;;;;;18.70;9.33;;;16.80;43.40;;;;;;4935798;29;20628;-69
2022/06/14 05:59:43;;;;;;;17.60;10.07;;;17.20;41.60;;;;;;4939889;28;20516;-69
2022/06/14 06:02:15;;;;;;;20.40;9.90;;;17.30;42.90;;;;;;4931224;29;20481;-68
2022/06/14 06:05:05;;;;;;;24.17;10.03;;;18.00;40.60;;;;;;5023777;28;20547;-69
2022/06/14 06:07:40;;;;;;;21.60;9.10;;;18.40;40.20;;;;;;5026371;28;20430;-69
2022/06/14 06:10:14;;;;;;;23.77;9.90;;;18.10;39.10;;;;;;5038527;28;20892;-69
2022/06/14 06:13:06;;;;;;;15.20;9.47;;;18.10;39.90;;;;;;5029440;28;21125;-68
2022/06/14 06:15:44;;;;;;;20.87;9.40;;;17.90;39.40;;;;;;5033700;28;20489;-68
2022/06/14 06:18:25;;;;;;;20.03;9.03;;;17.60;40.80;;;;;;5023779;28;20427;-68
2022/06/14 06:21:19;;;;;;;17.97;9.53;;;18.20;40.00;;;;;;5031295;28;20463;-69
2022/06/14 06:23:54;;;;;;;18.13;10.63;;;17.90;38.20;;;;;;5032324;28;20453;-69
2022/06/14 06:26:23;;;;;;;16.97;9.27;;;18.00;39.80;;;;;;5036247;28;20422;-68
2022/06/14 06:28:55;;;;;;;12.33;8.93;;;18.00;38.00;;;;;;5019637;28;20463;-69
2022/06/14 06:31:27;;;;;;;16.80;9.13;;;18.10;37.40;;;;;;5014829;28;20467;-69
2022/06/14 06:33:55;;;;;;;18.30;8.77;;;17.90;37.30;;;;;;5028449;28;20458;-68
2022/06/14 06:36:39;;;;;;;28.30;8.87;;;18.40;36.20;;;;;;5043751;28;20516;-68
2022/06/14 06:39:31;;;;;;;16.17;8.20;;;17.90;36.10;;;;;;5039034;28;20967;-69
2022/06/14 06:42:10;;;;;;;17.27;9.43;;;18.30;37.80;;;;;;5032264;28;20447;-68
2022/06/14 06:44:38;;;;;;;18.10;9.00;;;19.10;36.10;;;;;;5037401;28;20480;-68
2022/06/14 06:47:09;;;;;;;26.93;10.10;;;19.30;34.10;;;;;;5042453;28;20498;-68
2022/06/14 06:49:45;;;;;;;21.37;9.50;;;19.50;35.00;;;;;;5031768;28;20463;-67
2022/06/14 06:52:14;;;;;;;17.63;9.47;;;19.10;35.30;;;;;;5032842;28;20412;-68
2022/06/14 06:55:11;;;;;;;16.57;9.73;;;18.70;36.50;;;;;;5034342;28;20440;-67
2022/06/14 06:57:39;;;;;;;22.93;9.30;;;18.80;34.60;;;;;;5022181;28;20441;-67
2022/06/14 07:00:06;;;;;;;18.63;9.00;;;18.90;35.50;;;;;;5039635;28;20428;-67
2022/06/14 07:02:41;;;;;;;19.27;9.03;;;18.80;36.10;;;;;;5046536;28;20437;-67
2022/06/14 07:05:14;;;;;;;15.20;7.80;;;19.30;35.60;;;;;;5041951;28;20457;-68
2022/06/14 07:07:43;;;;;;;19.90;9.70;;;19.60;33.70;;;;;;5041288;28;20485;-68
2022/06/14 07:10:21;;;;;;;26.63;9.20;;;19.50;34.90;;;;;;5032194;28;20472;-68
2022/06/14 07:13:15;;;;;;;20.80;8.10;;;19.70;34.90;;;;;;5033607;28;20909;-67
2022/06/14 07:15:49;;;;;;;14.90;7.67;;;20.10;34.80;;;;;;5033601;28;20411;-70
2022/06/14 07:18:23;;;;;;;18.70;7.90;;;20.10;32.80;;;;;;5033149;28;20421;-68
2022/06/14 07:21:02;;;;;;;22.27;8.67;;;20.00;34.20;;;;;;5036979;28;20994;-67
2022/06/14 07:23:38;;;;;;;16.10;7.60;;;19.10;35.20;;;;;;5031472;28;20445;-68
2022/06/14 07:26:11;;;;;;;15.17;7.37;;;18.70;36.90;;;;;;5024780;28;20458;-67
2022/06/14 07:28:58;;;;;;;12.73;8.10;;;19.40;36.80;;;;;;5039522;28;20493;-68
2022/06/14 07:31:40;;;;;;;15.90;8.53;;;19.90;33.90;;;;;;5026564;28;20439;-67
2022/06/14 07:34:07;;;;;;;14.67;7.90;;;19.40;34.80;;;;;;5035801;28;20545;-67
2022/06/14 07:36:54;;;;;;;22.70;7.20;;;19.30;35.80;;;;;;5037711;28;20461;-68
2022/06/14 07:39:26;;;;;;;19.23;7.50;;;19.20;36.40;;;;;;5028875;28;20937;-69
2022/06/14 07:42:10;;;;;;;14.83;7.93;;;20.00;33.90;;;;;;5047466;28;20806;-67
2022/06/14 07:45:03;;;;;;;19.13;7.87;;;19.90;33.30;;;;;;5040784;28;20464;-68
2022/06/14 07:47:43;;;;;;;12.00;7.27;;;20.70;33.10;;;;;;5035707;28;20429;-68
2022/06/14 07:50:27;;;;;;;24.60;7.60;;;20.50;33.10;;;;;;5034900;28;20450;-67
2022/06/14 07:53:26;;;;;;;13.47;7.50;;;20.20;32.90;;;;;;5025944;28;20426;-68
2022/06/14 07:56:07;;;;;;;14.40;7.67;;;20.40;32.70;;;;;;5033055;28;20462;-68
2022/06/14 07:58:43;;;;;;;22.23;8.10;;;21.00;32.80;;;;;;5030315;28;20431;-68
2022/06/14 08:01:20;;;;;;;17.57;7.63;;;20.80;31.60;;;;;;5030284;28;20407;-67
2022/06/14 08:04:11;;;;;;;16.93;7.53;;;21.00;33.10;;;;;;5032477;28;20763;-68
2022/06/14 08:06:38;;;;;;;22.30;7.47;;;21.40;31.20;;;;;;5034235;28;20801;-68
2022/06/14 08:09:36;;;;;;;16.60;7.70;;;20.90;32.20;;;;;;5033512;28;20459;-68
2022/06/14 08:12:10;;;;;;;13.67;7.53;;;21.30;31.40;;;;;;5023916;28;20417;-68
2022/06/14 08:14:42;;;;;;;15.03;7.33;;;21.40;29.80;;;;;;5031336;28;20533;-68
2022/06/14 08:17:09;;;;;;;13.77;7.30;;;22.00;30.20;;;;;;5012726;28;20433;-68
2022/06/14 08:19:42;;;;;;;15.80;7.30;;;21.70;31.40;;;;;;5035697;28;20525;-68
2022/06/14 08:22:18;;;;;;;15.10;7.60;;;22.10;32.20;;;;;;5024307;28;20446;-67
2022/06/14 08:24:52;;;;;;;11.77;7.30;;;21.90;29.60;;;;;;5032107;28;20502;-69
2022/06/14 08:27:26;;;;;;;20.50;7.97;;;22.00;32.40;;;;;;5040178;28;20422;-71
2022/06/14 08:30:00;;;;;;;17.40;8.00;;;22.20;30.20;;;;;;5040706;28;20833;-68
2022/06/14 08:32:37;;;;;;;14.20;6.80;;;22.50;30.30;;;;;;5024607;28;20915;-68
2022/06/14 08:35:12;;;;;;;15.50;7.10;;;21.90;30.70;;;;;;5032234;28;20473;-68
2022/06/14 08:37:47;;;;;;;11.10;7.03;;;22.10;32.70;;;;;;5031511;28;20402;-68
2022/06/14 08:40:30;;;;;;;13.90;7.80;;;22.50;30.70;;;;;;5032457;28;20465;-68
2022/06/14 08:43:04;;;;;;;27.00;8.20;;;22.80;30.90;;;;;;5032192;28;20402;-69
2022/06/14 08:45:41;;;;;;;23.53;7.13;;;23.20;28.90;;;;;;5032011;28;20436;-70
2022/06/14 08:48:27;;;;;;;17.40;6.60;;;23.40;29.10;;;;;;5031841;28;20427;-68
2022/06/14 08:51:11;;;;;;;12.83;6.67;;;23.50;28.50;;;;;;5032072;28;20442;-68
2022/06/14 08:53:48;;;;;;;13.53;6.70;;;23.60;28.90;;;;;;5031991;28;20413;-68
2022/06/14 08:56:26;;;;;;;12.90;6.90;;;23.00;29.40;;;;;;5032006;28;20470;-68
2022/06/14 08:59:18;;;;;;;15.17;7.03;;;22.90;28.70;;;;;;5032117;28;20400;-68
2022/06/14 09:02:12;;;;;;;10.70;6.67;;;23.10;27.50;;;;;;5031787;28;20420;-68
2022/06/14 09:05:19;;;;;;;14.97;6.17;;;23.00;29.40;;;;;;5031824;28;20449;-68
2022/06/14 09:08:29;;;;;;;18.43;6.40;;;23.40;28.40;;;;;;5031450;28;20474;-68
2022/06/14 09:11:13;;;;;;;16.83;7.43;;;23.20;28.30;;;;;;5014095;28;20472;-68
2022/06/14 09:13:56;;;;;;;13.43;7.00;;;23.40;29.00;;;;;;5031453;28;20512;-68
2022/06/14 09:16:28;;;;;;;15.23;6.13;;;23.50;28.60;;;;;;5030633;28;20428;-68
2022/06/14 09:18:53;;;;;;;17.20;6.53;;;23.50;28.80;;;;;;5030953;28;20479;-68
2022/06/14 09:21:30;;;;;;;12.87;7.03;;;23.30;28.30;;;;;;5031687;28;20497;-68
2022/06/14 09:24:27;;;;;;;12.57;6.90;;;23.90;28.50;;;;;;5031437;28;20192;-68
2022/06/14 09:27:18;;;;;;;12.30;6.70;;;23.70;26.80;;;;;;5031730;28;20399;-68
2022/06/14 09:29:49;;;;;;;21.17;7.20;;;23.30;28.40;;;;;;5031551;28;20462;-68
2022/06/14 09:35:35;;;;;;;10.83;5.83;;;23.90;26.70;;;;;;5031086;28;20833;-68
2022/06/14 09:38:08;;;;;;;13.23;5.70;;;23.60;26.30;;;;;;5031550;28;20805;-68
2022/06/14 09:40:54;;;;;;;13.63;5.90;;;24.00;27.00;;;;;;5031462;28;20398;-69
2022/06/14 09:43:40;;;;;;;10.33;5.20;;;24.40;23.30;;;;;;5031361;28;20919;-70
2022/06/14 09:46:34;;;;;;;11.17;5.97;;;24.80;24.40;;;;;;5031389;28;20407;-68
2022/06/14 09:49:08;;;;;;;19.00;5.90;;;25.20;23.20;;;;;;5031067;28;20508;-69
2022/06/14 09:52:07;;;;;;;11.30;6.07;;;25.50;23.90;;;;;;5030546;28;20426;-69
2022/06/14 09:55:02;;;;;;;10.80;6.03;;;25.60;24.40;;;;;;5031147;28;20485;-68
2022/06/14 09:57:49;;;;;;;18.47;6.80;;;25.70;24.00;;;;;;5030599;28;20423;-68
2022/06/14 10:00:39;;;;;;;12.20;6.17;;;25.70;23.30;;;;;;5031295;28;20920;-69
2022/06/14 10:03:26;;;;;;;11.97;6.30;;;26.00;23.90;;;;;;5030434;28;20454;-68
2022/06/14 10:06:04;;;;;;;20.50;7.20;;;26.40;23.70;;;;;;5030957;28;20447;-69
2022/06/14 10:08:41;;;;;;;15.07;6.60;;;25.90;24.10;;;;;;5031149;28;20906;-67
2022/06/14 10:11:25;;;;;;;23.20;6.27;;;25.80;23.70;;;;;;5030891;28;20422;-68
2022/06/14 10:14:28;;;;;;;9.33;6.07;;;24.80;24.60;;;;;;5030379;28;20474;-69
2022/06/14 10:17:03;;;;;;;12.77;6.20;;;25.00;24.90;;;;;;5031456;28;20411;-68
2022/06/14 10:20:02;;;;;;;15.60;5.87;;;25.40;23.50;;;;;;5030959;28;20406;-69
2022/06/14 10:22:52;;;;;;;16.10;5.90;;;25.10;24.20;;;;;;5031050;28;20388;-68
2022/06/14 10:25:26;;;;;;;7.20;5.30;;;25.30;23.60;;;;;;5030829;28;20447;-69
2022/06/14 10:28:20;;;;;;;11.03;5.53;;;25.70;24.60;;;;;;5030896;28;20932;-68
2022/06/14 10:30:51;;;;;;;9.93;5.13;;;25.90;21.90;;;;;;5030826;28;20469;-68
2022/06/14 10:33:39;;;;;;;10.30;5.70;;;26.20;24.00;;;;;;5030902;28;20435;-68
2022/06/14 10:36:35;;;;;;;9.60;5.77;;;26.80;20.70;;;;;;5030552;28;20427;-68
2022/06/14 10:39:38;;;;;;;12.07;6.00;;;27.10;21.70;;;;;;5031566;28;20890;-69
2022/06/14 10:42:21;;;;;;;13.17;5.77;;;26.90;22.40;;;;;;5030606;28;20790;-68
2022/06/14 10:44:56;;;;;;;12.13;5.77;;;26.70;21.70;;;;;;5030881;28;20419;-68
2022/06/14 10:47:30;;;;;;;16.23;6.20;;;24.70;23.10;;;;;;5031001;28;20948;-68
2022/06/14 10:49:58;;;;;;;7.63;5.90;;;24.40;24.20;;;;;;5030138;28;20492;-68
2022/06/14 10:52:46;;;;;;;10.90;6.00;;;25.00;23.80;;;;;;5030717;28;20411;-68
2022/06/14 10:55:33;;;;;;;16.10;5.67;;;25.40;24.00;;;;;;5030610;28;20411;-70
2022/06/14 10:58:07;;;;;;;9.40;6.10;;;26.30;23.50;;;;;;5030890;28;20504;-68
2022/06/14 11:00:52;;;;;;;11.50;5.70;;;27.10;22.80;;;;;;5030743;28;20434;-68
2022/06/14 11:03:38;;;;;;;9.20;5.73;;;27.40;22.30;;;;;;5034174;28;20517;-68
2022/06/14 11:06:25;;;;;;;14.47;6.10;;;27.60;23.10;;;;;;5046118;28;20804;-69
2022/06/14 11:09:10;;;;;;;13.47;5.90;;;27.10;21.50;;;;;;5034138;28;20472;-68
2022/06/14 11:12:10;;;;;;;11.33;5.80;;;25.90;22.20;;;;;;5032679;28;20429;-68
2022/06/14 11:14:51;;;;;;;9.30;6.13;;;25.20;24.90;;;;;;5034132;28;20482;-69
2022/06/14 11:17:22;;;;;;;12.23;6.10;;;24.90;24.20;;;;;;5025247;28;20423;-68
2022/06/14 11:20:16;;;;;;;10.83;6.23;;;25.60;22.40;;;;;;5034037;28;20419;-68
2022/06/14 11:23:39;;;;;;;11.40;5.20;;;25.10;22.80;;;;;;5041544;28;20438;-69
2022/06/14 11:26:22;;;;;;;12.23;6.27;;;26.20;24.90;;;;;;4954801;28;20429;-69
2022/06/14 11:28:57;;;;;;;13.73;5.87;;;27.40;21.70;;;;;;4945511;28;20478;-68
2022/06/14 11:31:40;;;;;;;12.97;5.57;;;27.10;20.30;;;;;;4933999;29;20422;-69
2022/06/14 11:34:34;;;;;;;14.20;5.70;;;26.70;20.80;;;;;;4934326;29;20443;-68
2022/06/14 11:37:09;;;;;;;14.67;5.53;;;28.00;21.00;;;;;;4945016;28;20534;-68
2022/06/14 11:39:48;;;;;;;9.33;5.10;;;28.20;20.00;;;;;;4947264;28;20447;-68
2022/06/14 11:42:31;;;;;;;9.60;5.10;;;30.00;18.20;;;;;;4947912;28;20442;-68
2022/06/14 11:45:09;;;;;;;11.67;5.80;;;29.20;18.50;;;;;;4953984;28;20454;-68
2022/06/14 11:47:58;;;;;;;17.37;5.40;;;30.30;17.40;;;;;;4947605;28;20916;-68
2022/06/14 11:50:40;;;;;;;9.13;5.50;;;31.20;17.30;;;;;;4944364;28;20474;-69
2022/06/14 11:53:23;;;;;;;12.60;4.97;;;31.60;14.90;;;;;;4948873;28;20989;-68
2022/06/14 11:55:59;;;;;;;11.60;5.73;;;31.20;14.70;;;;;;4966336;28;20431;-69
2022/06/14 11:58:40;;;;;;;9.33;5.30;;;31.60;16.60;;;;;;5034756;28;21054;-69
2022/06/14 12:01:31;;;;;;;14.47;4.93;;;31.50;15.10;;;;;;5038933;28;20437;-68
2022/06/14 12:04:34;;;;;;;13.40;5.63;;;32.10;14.30;;;;;;5027121;28;20589;-69
2022/06/14 12:07:16;;;;;;;12.00;5.30;;;32.40;16.30;;;;;;5033265;28;20425;-69
2022/06/14 12:10:03;;;;;;;9.37;5.30;;;32.90;14.50;;;;;;5031180;28;20466;-71
2022/06/14 12:12:53;;;;;;;11.20;4.87;;;32.80;13.60;;;;;;5013873;28;21054;-69
2022/06/14 12:15:36;;;;;;;13.10;4.80;;;33.30;14.40;;;;;;5032702;28;20427;-69
2022/06/14 12:18:07;;;;;;;13.33;5.10;;;32.40;13.40;;;;;;5032830;28;20822;-68
2022/06/14 12:20:44;;;;;;;16.00;5.27;;;31.90;15.60;;;;;;5032446;28;20427;-69
2022/06/14 12:23:19;;;;;;;12.20;5.07;;;32.30;13.70;;;;;;5032405;28;20453;-68
2022/06/14 12:28:52;;;;;;;12.63;4.80;;;30.80;15.70;;;;;;5027608;28;20417;-68
2022/06/14 12:31:40;;;;;;;6.00;4.70;;;31.50;14.70;;;;;;5033217;28;20434;-69
2022/06/14 12:34:13;;;;;;;8.60;4.60;;;32.40;14.60;;;;;;5021585;28;20957;-68
2022/06/14 12:37:18;;;;;;;13.50;4.73;;;32.30;14.70;;;;;;5032649;28;20871;-69
2022/06/14 12:40:13;;;;;;;16.50;4.60;;;32.30;14.40;;;;;;5033827;28;20399;-68
2022/06/14 12:42:56;;;;;;;11.60;5.20;;;30.70;18.00;;;;;;5030990;28;20431;-68
2022/06/14 12:45:48;;;;;;;10.40;5.27;;;30.50;14.70;;;;;;5025612;28;20959;-68
2022/06/14 12:48:20;;;;;;;7.23;4.67;;;30.30;17.30;;;;;;5020772;28;20462;-68
2022/06/14 12:51:17;;;;;;;12.50;4.90;;;30.80;17.50;;;;;;5036869;28;20471;-68
2022/06/14 12:54:00;;;;;;;8.13;4.90;;;30.40;15.90;;;;;;4997368;28;20553;-68
2022/06/14 12:56:37;;;;;;;9.40;5.20;;;30.90;17.60;;;;;;5030100;28;20424;-69
2022/06/14 12:59:28;;;;;;;10.83;5.37;;;30.80;15.70;;;;;;5029010;28;20968;-69
2022/06/14 13:02:13;;;;;;;11.93;5.40;;;31.30;17.00;;;;;;5003566;28;20442;-68
2022/06/14 13:04:48;;;;;;;9.70;4.53;;;30.80;15.40;;;;;;5015214;28;20838;-68
2022/06/14 13:07:33;;;;;;;12.87;4.80;;;30.40;15.50;;;;;;5034672;28;20423;-68
2022/06/14 13:10:11;;;;;;;13.47;5.37;;;30.10;16.80;;;;;;5031395;28;20454;-68
2022/06/14 13:12:48;;;;;;;11.47;5.17;;;30.30;17.50;;;;;;5008601;28;20455;-68
2022/06/14 13:15:24;;;;;;;12.20;5.03;;;30.30;17.00;;;;;;5036038;28;20434;-69
2022/06/14 13:18:30;;;;;;;8.53;5.23;;;30.80;17.30;;;;;;5038995;28;20744;-71
2022/06/14 13:20:57;;;;;;;12.60;4.90;;;31.50;16.80;;;;;;5008652;28;20468;-71
2022/06/14 13:23:47;;;;;;;8.20;4.80;;;31.60;15.10;;;;;;5018727;28;20454;-69
2022/06/14 13:26:46;;;;;;;11.67;4.80;;;31.60;15.30;;;;;;5034900;28;20889;-69
2022/06/14 13:29:18;;;;;;;11.73;4.70;;;31.70;15.50;;;;;;5035204;28;20546;-68
2022/06/14 13:32:08;;;;;;;8.13;4.67;;;31.30;15.10;;;;;;5026606;28;20548;-71
2022/06/14 13:34:54;;;;;;;14.20;4.77;;;30.90;15.90;;;;;;5037747;28;20453;-70
2022/06/14 13:37:35;;;;;;;13.93;4.73;;;31.00;14.20;;;;;;5037001;28;20491;-68
2022/06/14 13:40:18;;;;;;;9.73;4.93;;;31.10;14.80;;;;;;5038721;28;20434;-69
2022/06/14 13:42:53;;;;;;;12.80;4.83;;;30.80;16.70;;;;;;5038626;28;20525;-70
2022/06/14 13:45:37;;;;;;;7.80;4.60;;;30.90;15.90;;;;;;5035804;28;20470;-68
2022/06/14 13:48:34;;;;;;;10.23;5.23;;;31.10;14.70;;;;;;5028338;28;20948;-68
2022/06/14 13:51:37;;;;;;;14.90;4.67;;;29.80;17.60;;;;;;5034031;28;20441;-68
2022/06/14 13:54:20;;;;;;;14.70;4.77;;;30.30;16.00;;;;;;5024328;28;20451;-68
2022/06/14 13:56:58;;;;;;;7.53;4.37;;;30.70;15.90;;;;;;5024310;28;20403;-68